createdAt,value
2022-09-12T00:00:01.220Z,8.37
2022-09-12T00:01:04.305Z,8.70
2022-09-12T00:02:01.020Z,10.77
2022-09-12T00:03:01.267Z,10.30
2022-09-12T00:04:01.128Z,9.53
2022-09-12T00:05:01.289Z,9.47
2022-09-12T00:06:06.414Z,9.17
2022-09-12T00:07:01.530Z,10.53
2022-09-12T00:08:01.482Z,10.40
2022-09-12T00:09:05.430Z,9.70
2022-09-12T00:10:01.222Z,9.03
2022-09-12T00:11:04.614Z,8.83
2022-09-12T00:12:01.197Z,10.50
2022-09-12T00:13:00.939Z,10.60
2022-09-12T00:14:01.355Z,11.07
2022-09-12T00:15:01.324Z,10.73
2022-09-12T00:16:01.624Z,9.73
2022-09-12T00:17:01.666Z,10.40
2022-09-12T00:18:01.203Z,9.13
2022-09-12T00:19:03.788Z,9.90
2022-09-12T00:20:01.072Z,11.13
2022-09-12T00:21:03.472Z,12.47
2022-09-12T00:22:01.297Z,10.47
2022-09-12T00:23:01.256Z,9.30
2022-09-12T00:24:01.282Z,12.37
2022-09-12T00:25:01.563Z,8.93
2022-09-12T00:26:04.481Z,10.13
2022-09-12T00:27:01.241Z,12.37
2022-09-12T00:28:01.184Z,10.03
2022-09-12T00:29:01.911Z,13.47
2022-09-12T00:30:01.269Z,13.03
2022-09-12T00:31:04.500Z,11.77
2022-09-12T00:32:01.289Z,12.63
2022-09-12T00:33:01.261Z,14.93
2022-09-12T00:34:01.329Z,12.83
2022-09-12T00:35:01.316Z,14.07
2022-09-12T00:36:06.898Z,13.60
2022-09-12T00:37:01.289Z,12.27
2022-09-12T00:38:00.957Z,13.73
2022-09-12T00:39:00.989Z,12.83
2022-09-12T00:40:01.879Z,12.73
2022-09-12T00:41:01.232Z,12.37
2022-09-12T00:42:01.445Z,12.20
2022-09-12T00:43:01.353Z,12.93
2022-09-12T00:44:12.676Z,11.60
2022-09-12T00:45:00.927Z,14.70
2022-09-12T00:46:05.988Z,15.13
2022-09-12T00:47:05.158Z,13.23
2022-09-12T00:48:03.462Z,13.93
2022-09-12T00:49:04.995Z,12.60
2022-09-12T00:50:07.993Z,11.97
2022-09-12T00:51:02.142Z,11.30
2022-09-12T00:52:06.935Z,11.00
2022-09-12T00:53:05.719Z,12.10
2022-09-12T00:54:05.807Z,10.67
2022-09-12T00:55:05.234Z,11.00
2022-09-12T00:56:01.232Z,10.57
2022-09-12T00:57:05.967Z,12.27
2022-09-12T00:58:07.463Z,12.50
2022-09-12T00:59:06.468Z,12.50
2022-09-12T01:00:06.099Z,11.30
2022-09-12T01:01:01.277Z,11.90
2022-09-12T01:02:01.300Z,12.80
2022-09-12T01:03:04.796Z,12.73
2022-09-12T01:04:01.406Z,12.13
2022-09-12T01:05:01.435Z,11.33
2022-09-12T01:06:09.615Z,12.40
2022-09-12T01:07:05.426Z,13.20
2022-09-12T01:08:02.339Z,10.33
2022-09-12T01:09:03.390Z,10.97
2022-09-12T01:10:01.023Z,11.33
2022-09-12T01:11:01.443Z,11.27
2022-09-12T01:12:01.487Z,11.70
2022-09-12T01:13:04.274Z,11.33
2022-09-12T01:14:00.982Z,11.53
2022-09-12T01:15:01.239Z,11.80
2022-09-12T01:16:03.354Z,11.13
2022-09-12T01:17:01.507Z,13.37
2022-09-12T01:18:09.312Z,12.53
2022-09-12T01:19:17.860Z,11.93
2022-09-12T01:20:20.501Z,11.83
2022-09-12T01:21:10.494Z,11.00
2022-09-12T01:22:18.212Z,11.70
2022-09-12T01:23:20.428Z,10.30
2022-09-12T01:24:20.421Z,9.87
2022-09-12T01:25:09.001Z,10.57
2022-09-12T01:26:15.358Z,8.97
2022-09-12T01:27:18.269Z,10.73
2022-09-12T01:28:20.411Z,10.37
2022-09-12T01:29:13.522Z,9.47
2022-09-12T01:30:20.408Z,11.20
2022-09-12T01:31:07.714Z,10.33
2022-09-12T01:32:09.449Z,10.50
2022-09-12T01:33:19.502Z,9.90
2022-09-12T01:34:16.620Z,10.87
2022-09-12T01:35:11.816Z,9.57
2022-09-12T01:36:18.203Z,8.40
2022-09-12T01:37:11.885Z,10.47
2022-09-12T01:38:12.358Z,10.03
2022-09-12T01:39:04.728Z,9.20
2022-09-12T01:40:09.152Z,11.27
2022-09-12T01:41:08.672Z,12.03
2022-09-12T01:42:13.514Z,10.20
2022-09-12T01:43:11.432Z,8.37
2022-09-12T01:44:08.400Z,9.37
2022-09-12T01:45:11.209Z,9.57
2022-09-12T01:46:09.028Z,8.77
2022-09-12T01:47:08.809Z,6.90
2022-09-12T01:48:10.275Z,9.43
2022-09-12T01:49:08.448Z,8.57
2022-09-12T01:50:05.328Z,9.73
2022-09-12T01:51:08.813Z,9.00
2022-09-12T01:52:07.341Z,10.23
2022-09-12T01:53:06.037Z,8.10
2022-09-12T01:54:07.736Z,8.87
2022-09-12T01:55:09.854Z,10.77
2022-09-12T01:56:06.883Z,10.13
2022-09-12T01:57:07.930Z,9.10
2022-09-12T01:58:07.233Z,9.00
2022-09-12T01:59:07.739Z,10.57
2022-09-12T02:00:06.523Z,9.27
2022-09-12T02:01:06.128Z,9.27
2022-09-12T02:02:06.125Z,10.10
2022-09-12T02:03:08.462Z,9.07
2022-09-12T02:04:08.489Z,8.07
2022-09-12T02:05:07.508Z,9.80
2022-09-12T02:06:05.847Z,9.30
2022-09-12T02:07:07.876Z,8.13
2022-09-12T02:08:06.403Z,11.43
2022-09-12T02:09:05.800Z,7.97
2022-09-12T02:10:09.370Z,8.70
2022-09-12T02:11:06.177Z,9.63
2022-09-12T02:12:05.386Z,8.07
2022-09-12T02:13:11.721Z,9.17
2022-09-12T02:14:05.822Z,9.07
2022-09-12T02:15:06.536Z,9.50
2022-09-12T02:16:07.146Z,7.77
2022-09-12T02:17:07.743Z,7.57
2022-09-12T02:18:05.179Z,7.20
2022-09-12T02:19:07.735Z,7.60
2022-09-12T02:20:14.623Z,7.00
2022-09-12T02:21:05.518Z,7.37
2022-09-12T02:22:04.124Z,5.53
2022-09-12T02:23:07.362Z,6.07
2022-09-12T02:24:04.816Z,6.50
2022-09-12T02:25:03.156Z,6.80
2022-09-12T02:26:07.292Z,5.20
2022-09-12T02:27:05.363Z,6.60
2022-09-12T02:28:08.913Z,6.23
2022-09-12T02:29:02.350Z,6.07
2022-09-12T02:30:01.143Z,4.80
2022-09-12T02:31:14.059Z,5.23
2022-09-12T02:32:09.503Z,6.57
2022-09-12T02:33:09.335Z,4.90
2022-09-12T02:34:11.999Z,5.77
2022-09-12T02:35:05.791Z,5.40
2022-09-12T02:36:11.057Z,5.27
2022-09-12T02:37:09.752Z,5.80
2022-09-12T02:38:05.701Z,5.17
2022-09-12T02:39:01.071Z,5.53
2022-09-12T02:40:01.623Z,4.83
2022-09-12T02:41:01.355Z,4.57
2022-09-12T02:42:03.261Z,4.83
2022-09-12T02:43:03.895Z,6.70
2022-09-12T02:44:01.733Z,5.53
2022-09-12T02:45:01.987Z,5.47
2022-09-12T02:46:01.025Z,5.07
2022-09-12T02:47:05.536Z,3.97
2022-09-12T02:48:07.783Z,6.57
2022-09-12T02:49:02.182Z,4.80
2022-09-12T02:50:02.272Z,5.57
2022-09-12T02:51:02.276Z,5.63
2022-09-12T02:52:02.464Z,5.37
2022-09-12T02:53:01.741Z,5.00
2022-09-12T02:54:01.373Z,4.37
2022-09-12T02:55:03.714Z,5.23
2022-09-12T02:56:01.840Z,5.10
2022-09-12T02:57:01.230Z,4.97
2022-09-12T02:58:04.266Z,4.47
2022-09-12T02:59:07.606Z,4.47
2022-09-12T03:00:02.317Z,5.10
2022-09-12T03:01:11.859Z,5.23
2022-09-12T03:02:14.997Z,5.47
2022-09-12T03:03:18.240Z,5.03
2022-09-12T03:04:20.410Z,6.07
2022-09-12T03:05:15.895Z,6.47
2022-09-12T03:06:09.712Z,5.43
2022-09-12T03:07:10.707Z,5.10
2022-09-12T03:08:17.451Z,4.57
2022-09-12T03:09:11.029Z,4.57
2022-09-12T03:10:14.588Z,4.77
2022-09-12T03:11:18.589Z,5.17
2022-09-12T03:12:09.215Z,5.57
2022-09-12T03:13:14.925Z,3.73
2022-09-12T03:14:18.211Z,5.10
2022-09-12T03:15:19.778Z,3.27
2022-09-12T03:16:15.164Z,5.03
2022-09-12T03:17:13.017Z,4.10
2022-09-12T03:18:11.291Z,5.40
2022-09-12T03:19:08.931Z,3.83
2022-09-12T03:20:07.470Z,5.03
2022-09-12T03:21:08.930Z,4.10
2022-09-12T03:22:09.944Z,5.83
2022-09-12T03:23:08.845Z,3.77
2022-09-12T03:24:13.230Z,5.30
2022-09-12T03:25:11.645Z,4.43
2022-09-12T03:26:05.928Z,4.13
2022-09-12T03:27:09.180Z,4.77
2022-09-12T03:28:05.437Z,3.90
2022-09-12T03:29:05.189Z,5.00
2022-09-12T03:30:02.600Z,3.20
2022-09-12T03:31:12.080Z,6.83
2022-09-12T03:32:01.227Z,4.00
2022-09-12T03:33:01.229Z,4.43
2022-09-12T03:34:01.662Z,3.27
2022-09-12T03:35:00.959Z,4.57
2022-09-12T03:36:01.646Z,4.87
2022-09-12T03:37:01.084Z,3.80
2022-09-12T03:38:00.924Z,4.87
2022-09-12T03:39:00.945Z,4.17
2022-09-12T03:40:01.208Z,3.87
2022-09-12T03:41:00.922Z,3.70
2022-09-12T03:42:01.259Z,3.53
2022-09-12T03:43:01.274Z,6.00
2022-09-12T03:44:01.581Z,4.10
2022-09-12T03:45:01.310Z,3.10
2022-09-12T03:46:01.380Z,5.23
2022-09-12T03:47:01.164Z,6.47
2022-09-12T03:48:02.080Z,4.87
2022-09-12T03:49:01.481Z,4.87
2022-09-12T03:50:01.861Z,4.70
2022-09-12T03:51:01.352Z,3.50
2022-09-12T03:52:01.565Z,3.67
2022-09-12T03:53:01.806Z,4.43
2022-09-12T03:54:01.310Z,4.43
2022-09-12T03:55:01.296Z,3.70
2022-09-12T03:56:05.958Z,4.57
2022-09-12T03:57:01.233Z,3.40
2022-09-12T03:58:01.215Z,4.10
2022-09-12T03:59:03.936Z,3.73
2022-09-12T04:00:01.450Z,5.10
2022-09-12T04:01:01.019Z,3.90
2022-09-12T04:02:01.315Z,3.17
2022-09-12T04:03:01.227Z,4.23
2022-09-12T04:04:01.109Z,3.37
2022-09-12T04:05:01.387Z,3.83
2022-09-12T04:06:00.942Z,5.43
2022-09-12T04:07:01.223Z,4.90
2022-09-12T04:08:01.174Z,4.60
2022-09-12T04:09:01.516Z,4.60
2022-09-12T04:10:01.301Z,4.67
2022-09-12T04:11:02.615Z,4.63
2022-09-12T04:12:01.591Z,5.47
2022-09-12T04:13:00.957Z,5.37
2022-09-12T04:14:01.292Z,4.90
2022-09-12T04:15:01.299Z,4.73
2022-09-12T04:16:01.422Z,4.60
2022-09-12T04:17:01.575Z,5.60
2022-09-12T04:18:05.586Z,5.20
2022-09-12T04:19:01.237Z,3.27
2022-09-12T04:20:01.387Z,5.93
2022-09-12T04:21:04.503Z,4.33
2022-09-12T04:22:01.261Z,4.80
2022-09-12T04:23:00.961Z,5.23
2022-09-12T04:24:01.248Z,7.70
2022-09-12T04:25:01.638Z,5.37
2022-09-12T04:26:03.380Z,4.70
2022-09-12T04:27:04.824Z,5.80
2022-09-12T04:28:01.229Z,5.67
2022-09-12T04:29:01.279Z,5.10
2022-09-12T04:30:01.228Z,7.07
2022-09-12T04:31:02.825Z,6.60
2022-09-12T04:32:01.184Z,6.60
2022-09-12T04:33:03.889Z,6.40
2022-09-12T04:34:01.308Z,6.87
2022-09-12T04:35:00.987Z,5.47
2022-09-12T04:36:06.457Z,5.50
2022-09-12T04:37:01.217Z,5.97
2022-09-12T04:38:01.032Z,6.30
2022-09-12T04:39:01.900Z,7.33
2022-09-12T04:40:01.192Z,6.47
2022-09-12T04:41:08.963Z,6.23
2022-09-12T04:42:01.172Z,6.40
2022-09-12T04:43:01.221Z,6.47
2022-09-12T04:44:03.704Z,5.80
2022-09-12T04:45:01.258Z,5.40
2022-09-12T04:46:05.159Z,6.17
2022-09-12T04:47:00.921Z,6.27
2022-09-12T04:48:01.703Z,6.30
2022-09-12T04:49:01.994Z,7.10
2022-09-12T04:50:01.358Z,5.60
2022-09-12T04:51:10.108Z,5.87
2022-09-12T04:52:01.181Z,7.83
2022-09-12T04:53:01.145Z,6.97
2022-09-12T04:54:03.762Z,7.77
2022-09-12T04:55:00.920Z,6.03
2022-09-12T04:56:02.298Z,5.07
2022-09-12T04:57:01.217Z,6.70
2022-09-12T04:58:01.602Z,7.40
2022-09-12T04:59:01.266Z,5.33
2022-09-12T05:00:06.526Z,7.40
2022-09-12T05:01:04.928Z,6.93
2022-09-12T05:02:01.015Z,5.27
2022-09-12T05:03:00.929Z,6.17
2022-09-12T05:04:02.340Z,6.77
2022-09-12T05:05:00.960Z,6.03
2022-09-12T05:06:02.682Z,5.23
2022-09-12T05:07:01.386Z,7.87
2022-09-12T05:08:01.218Z,5.77
2022-09-12T05:09:03.710Z,7.43
2022-09-12T05:10:00.965Z,8.90
2022-09-12T05:11:02.830Z,6.80
2022-09-12T05:12:04.727Z,6.50
2022-09-12T05:13:00.927Z,7.23
2022-09-12T05:14:01.620Z,6.73
2022-09-12T05:15:01.234Z,6.10
2022-09-12T05:16:02.672Z,7.07
2022-09-12T05:17:01.931Z,6.83
2022-09-12T05:18:01.253Z,6.60
2022-09-12T05:19:01.355Z,6.73
2022-09-12T05:20:01.196Z,6.47
2022-09-12T05:21:03.486Z,6.67
2022-09-12T05:22:01.230Z,6.93
2022-09-12T05:23:00.993Z,8.00
2022-09-12T05:24:01.143Z,8.20
2022-09-12T05:25:01.235Z,6.70
2022-09-12T05:26:03.069Z,7.27
2022-09-12T05:27:00.934Z,7.60
2022-09-12T05:28:01.162Z,8.33
2022-09-12T05:29:03.962Z,6.20
2022-09-12T05:30:00.996Z,6.20
2022-09-12T05:31:03.475Z,8.97
2022-09-12T05:32:01.705Z,6.37
2022-09-12T05:33:00.915Z,7.30
2022-09-12T05:34:01.805Z,8.00
2022-09-12T05:35:00.912Z,7.77
2022-09-12T05:36:02.223Z,7.90
2022-09-12T05:37:01.164Z,7.60
2022-09-12T05:38:01.235Z,8.60
2022-09-12T05:39:01.333Z,7.70
2022-09-12T05:40:01.188Z,6.90
2022-09-12T05:41:02.688Z,7.10
2022-09-12T05:42:00.923Z,7.83
2022-09-12T05:43:01.220Z,6.27
2022-09-12T05:44:03.193Z,7.37
2022-09-12T05:45:01.215Z,8.90
2022-09-12T05:46:01.690Z,9.53
2022-09-12T05:47:01.230Z,6.57
2022-09-12T05:48:01.462Z,8.43
2022-09-12T05:49:04.207Z,9.40
2022-09-12T05:50:01.286Z,8.50
2022-09-12T05:51:03.575Z,8.23
2022-09-12T05:52:01.209Z,9.17
2022-09-12T05:53:01.247Z,8.20
2022-09-12T05:54:03.608Z,6.90
2022-09-12T05:55:01.265Z,7.83
2022-09-12T05:56:05.335Z,7.73
2022-09-12T05:57:01.269Z,7.60
2022-09-12T05:58:00.955Z,6.63
2022-09-12T05:59:03.118Z,7.77
2022-09-12T06:00:01.222Z,8.03
2022-09-12T06:01:01.795Z,8.40
2022-09-12T06:02:01.044Z,7.90
2022-09-12T06:03:00.983Z,6.30
2022-09-12T06:04:04.905Z,6.27
2022-09-12T06:05:01.240Z,7.57
2022-09-12T06:06:03.155Z,7.80
2022-09-12T06:07:01.259Z,6.60
2022-09-12T06:08:01.219Z,7.97
2022-09-12T06:09:03.211Z,8.43
2022-09-12T06:10:01.490Z,8.87
2022-09-12T06:11:03.158Z,8.47
2022-09-12T06:12:01.688Z,7.47
2022-09-12T06:13:00.927Z,7.00
2022-09-12T06:14:01.538Z,9.43
2022-09-12T06:15:00.946Z,7.43
2022-09-12T06:16:04.041Z,7.80
2022-09-12T06:17:01.266Z,5.90
2022-09-12T06:18:00.950Z,11.67
2022-09-12T06:19:03.572Z,9.33
2022-09-12T06:20:01.148Z,8.70
2022-09-12T06:21:03.283Z,7.77
2022-09-12T06:22:00.980Z,9.27
2022-09-12T06:23:01.256Z,7.07
2022-09-12T06:24:01.978Z,8.33
2022-09-12T06:25:01.281Z,7.70
2022-09-12T06:26:02.351Z,7.73
2022-09-12T06:27:00.931Z,7.93
2022-09-12T06:28:01.105Z,8.83
2022-09-12T06:29:01.338Z,8.17
2022-09-12T06:30:01.264Z,7.07
2022-09-12T06:31:02.693Z,6.57
2022-09-12T06:32:01.349Z,7.53
2022-09-12T06:33:01.220Z,8.30
2022-09-12T06:34:04.020Z,8.13
2022-09-12T06:35:00.929Z,7.73
2022-09-12T06:36:03.879Z,7.43
2022-09-12T06:37:00.937Z,6.80
2022-09-12T06:38:01.232Z,8.97
2022-09-12T06:39:03.634Z,7.70
2022-09-12T06:40:01.981Z,8.40
2022-09-12T06:41:03.493Z,7.57
2022-09-12T06:42:01.238Z,8.17
2022-09-12T06:43:01.214Z,5.97
2022-09-12T06:44:02.386Z,9.03
2022-09-12T06:45:01.260Z,9.40
2022-09-12T06:46:01.688Z,8.83
2022-09-12T06:47:00.938Z,7.77
2022-09-12T06:48:01.275Z,8.53
2022-09-12T06:49:01.249Z,9.50
2022-09-12T06:50:01.233Z,7.30
2022-09-12T06:51:03.074Z,7.60
2022-09-12T06:52:01.268Z,8.77
2022-09-12T06:53:01.217Z,7.67
2022-09-12T06:54:01.906Z,8.90
2022-09-12T06:55:01.283Z,8.97
2022-09-12T06:56:02.889Z,8.73
2022-09-12T06:57:01.152Z,7.47
2022-09-12T06:58:00.943Z,8.80
2022-09-12T06:59:01.246Z,8.37
2022-09-12T07:00:01.818Z,8.47
2022-09-12T07:01:02.283Z,10.57
2022-09-12T07:02:00.960Z,7.93
2022-09-12T07:03:00.923Z,9.87
2022-09-12T07:04:02.966Z,8.67
2022-09-12T07:05:01.160Z,10.03
2022-09-12T07:06:02.947Z,6.90
2022-09-12T07:07:01.285Z,8.20
2022-09-12T07:08:00.991Z,7.97
2022-09-12T07:09:05.591Z,8.50
2022-09-12T07:10:00.993Z,7.57
2022-09-12T07:11:10.495Z,7.03
2022-09-12T07:12:01.163Z,8.20
2022-09-12T07:13:01.349Z,8.57
2022-09-12T07:14:03.623Z,9.37
2022-09-12T07:15:01.275Z,7.67
2022-09-12T07:16:01.963Z,7.60
2022-09-12T07:17:01.039Z,7.30
2022-09-12T07:18:01.072Z,8.40
2022-09-12T07:19:02.751Z,7.40
2022-09-12T07:20:01.177Z,7.77
2022-09-12T07:21:01.656Z,8.93
2022-09-12T07:22:00.968Z,8.03
2022-09-12T07:23:00.962Z,6.63
2022-09-12T07:24:01.266Z,7.20
2022-09-12T07:25:00.959Z,9.13
2022-09-12T07:26:01.682Z,8.47
2022-09-12T07:27:01.067Z,8.80
2022-09-12T07:28:01.507Z,8.30
2022-09-12T07:29:25.235Z,7.13
2022-09-12T07:30:00.932Z,6.27
2022-09-12T07:31:06.384Z,8.13
2022-09-12T07:32:01.094Z,10.23
2022-09-12T07:33:00.980Z,9.17
2022-09-12T07:34:04.063Z,8.03
2022-09-12T07:35:00.936Z,8.17
2022-09-12T07:36:02.769Z,6.53
2022-09-12T07:37:00.965Z,8.23
2022-09-12T07:38:01.430Z,9.43
2022-09-12T07:39:01.286Z,10.47
2022-09-12T07:40:01.310Z,10.00
2022-09-12T07:41:00.972Z,8.53
2022-09-12T07:42:01.241Z,9.13
2022-09-12T07:43:00.930Z,8.63
2022-09-12T07:44:02.627Z,8.00
2022-09-12T07:45:00.946Z,9.63
2022-09-12T07:46:01.108Z,8.60
2022-09-12T07:47:01.586Z,9.80
2022-09-12T07:48:01.157Z,8.10
2022-09-12T07:49:01.226Z,8.50
2022-09-12T07:50:01.005Z,7.77
2022-09-12T07:51:03.537Z,8.90
2022-09-12T07:52:01.164Z,8.90
2022-09-12T07:53:00.908Z,8.30
2022-09-12T07:54:00.979Z,8.27
2022-09-12T07:55:01.283Z,9.03
2022-09-12T07:56:01.053Z,7.63
2022-09-12T07:57:01.253Z,8.30
2022-09-12T07:58:01.236Z,7.77
2022-09-12T07:59:01.261Z,7.37
2022-09-12T08:00:01.356Z,7.60
2022-09-12T08:01:02.218Z,8.83
2022-09-12T08:02:00.955Z,7.97
2022-09-12T08:03:01.484Z,7.57
2022-09-12T08:04:01.744Z,6.47
2022-09-12T08:05:00.939Z,8.73
2022-09-12T08:06:03.410Z,8.43
2022-09-12T08:07:00.926Z,7.97
2022-09-12T08:08:01.467Z,7.17
2022-09-12T08:09:01.344Z,7.97
2022-09-12T08:10:01.661Z,8.50
2022-09-12T08:11:03.986Z,8.00
2022-09-12T08:12:02.192Z,10.53
2022-09-12T08:13:01.279Z,9.13
2022-09-12T08:14:01.273Z,8.10
2022-09-12T08:15:01.336Z,9.70
2022-09-12T08:16:04.079Z,8.47
2022-09-12T08:17:00.944Z,8.33
2022-09-12T08:18:01.471Z,8.97
2022-09-12T08:19:02.611Z,10.10
2022-09-12T08:20:01.232Z,8.63
2022-09-12T08:21:03.197Z,8.57
2022-09-12T08:22:01.170Z,8.83
2022-09-12T08:23:01.249Z,7.93
2022-09-12T08:24:03.169Z,8.70
2022-09-12T08:25:01.279Z,7.57
2022-09-12T08:26:05.948Z,6.67
2022-09-12T08:27:01.279Z,8.07
2022-09-12T08:28:01.260Z,8.33
2022-09-12T08:29:01.512Z,10.10
2022-09-12T08:30:01.058Z,7.47
2022-09-12T08:31:01.706Z,8.87
2022-09-12T08:32:01.036Z,8.90
2022-09-12T08:33:01.122Z,10.13
2022-09-12T08:34:01.793Z,8.20
2022-09-12T08:35:00.985Z,7.70
2022-09-12T08:36:04.224Z,10.23
2022-09-12T08:37:00.944Z,9.63
2022-09-12T08:38:01.223Z,7.87
2022-09-12T08:39:04.550Z,9.23
2022-09-12T08:40:01.405Z,8.33
2022-09-12T08:41:08.778Z,8.83
2022-09-12T08:42:03.171Z,9.00
2022-09-12T08:43:07.236Z,9.03
2022-09-12T08:44:14.028Z,7.93
2022-09-12T08:45:16.898Z,8.93
2022-09-12T08:46:08.147Z,9.33
2022-09-12T08:47:14.030Z,8.77
2022-09-12T08:48:03.909Z,6.97
2022-09-12T08:49:03.452Z,9.50
2022-09-12T08:50:09.398Z,8.67
2022-09-12T08:51:01.413Z,8.43
2022-09-12T08:52:06.361Z,10.03
2022-09-12T08:53:09.265Z,8.17
2022-09-12T08:54:03.534Z,9.27
2022-09-12T08:55:02.898Z,9.73
2022-09-12T08:56:02.775Z,9.00
2022-09-12T08:57:03.944Z,7.83
2022-09-12T08:58:10.031Z,7.73
2022-09-12T08:59:01.489Z,9.83
2022-09-12T09:00:03.991Z,9.97
2022-09-12T09:01:07.237Z,10.17
2022-09-12T09:02:01.861Z,8.97
2022-09-12T09:03:20.448Z,7.93
2022-09-12T09:04:19.683Z,8.30
2022-09-12T09:05:12.348Z,9.40
2022-09-12T09:06:07.705Z,11.13
2022-09-12T09:07:14.862Z,7.67
2022-09-12T09:08:18.286Z,7.87
2022-09-12T09:09:10.560Z,6.73
2022-09-12T09:10:14.870Z,8.87
2022-09-12T09:11:12.713Z,8.63
2022-09-12T09:12:12.009Z,8.90
2022-09-12T09:13:08.877Z,8.53
2022-09-12T09:14:13.877Z,7.00
2022-09-12T09:15:14.037Z,7.80
2022-09-12T09:16:08.808Z,8.33
2022-09-12T09:17:02.662Z,10.13
2022-09-12T09:18:05.279Z,7.60
2022-09-12T09:19:07.490Z,8.70
2022-09-12T09:20:09.691Z,8.70
2022-09-12T09:21:05.127Z,9.60
2022-09-12T09:22:06.479Z,8.00
2022-09-12T09:23:07.143Z,7.77
2022-09-12T09:24:04.997Z,10.03
2022-09-12T09:25:07.271Z,9.87
2022-09-12T09:26:06.023Z,9.27
2022-09-12T09:27:14.303Z,9.10
2022-09-12T09:28:06.252Z,9.50
2022-09-12T09:29:05.442Z,8.87
2022-09-12T09:30:02.370Z,8.63
2022-09-12T09:31:01.904Z,6.67
2022-09-12T09:32:08.781Z,8.03
2022-09-12T09:33:04.413Z,8.63
2022-09-12T09:34:01.099Z,9.53
2022-09-12T09:35:02.041Z,8.10
2022-09-12T09:36:16.087Z,9.07
2022-09-12T09:37:13.202Z,8.10
2022-09-12T09:38:13.703Z,9.20
2022-09-12T09:39:05.007Z,9.17
2022-09-12T09:40:14.917Z,10.30
2022-09-12T09:41:16.488Z,7.63
2022-09-12T09:42:16.405Z,10.07
2022-09-12T09:43:09.427Z,9.00
2022-09-12T09:44:01.706Z,10.63
2022-09-12T09:45:13.392Z,8.57
2022-09-12T09:46:01.005Z,8.87
2022-09-12T09:47:01.577Z,9.57
2022-09-12T09:48:15.296Z,8.73
2022-09-12T09:49:02.221Z,9.37
2022-09-12T09:50:01.246Z,10.23
2022-09-12T09:51:03.223Z,8.00
2022-09-12T09:52:01.872Z,8.43
2022-09-12T09:53:02.901Z,7.93
2022-09-12T09:54:05.012Z,8.33
2022-09-12T09:55:01.215Z,9.90
2022-09-12T09:56:06.668Z,9.70
2022-09-12T09:57:00.992Z,8.83
2022-09-12T09:58:01.084Z,7.67
2022-09-12T09:59:10.091Z,9.10
2022-09-12T10:00:20.408Z,6.87
2022-09-12T10:01:04.395Z,8.60
2022-09-12T10:02:12.571Z,8.83
2022-09-12T10:03:08.186Z,8.57
2022-09-12T10:04:01.151Z,8.60
2022-09-12T10:05:00.991Z,8.90
2022-09-12T10:06:07.098Z,9.80
2022-09-12T10:07:03.034Z,8.33
2022-09-12T10:08:02.970Z,8.20
2022-09-12T10:09:15.820Z,9.23
2022-09-12T10:10:13.853Z,9.13
2022-09-12T10:11:03.195Z,7.80
2022-09-12T10:12:20.009Z,8.10
2022-09-12T10:13:19.306Z,9.03
2022-09-12T10:14:01.333Z,8.37
2022-09-12T10:15:03.511Z,8.47
2022-09-12T10:16:03.383Z,8.40
2022-09-12T10:17:02.635Z,9.53
2022-09-12T10:18:01.239Z,8.80
2022-09-12T10:19:02.743Z,7.53
2022-09-12T10:20:20.453Z,9.10
2022-09-12T10:21:01.655Z,8.27
2022-09-12T10:22:02.305Z,9.53
2022-09-12T10:23:12.977Z,7.77
2022-09-12T10:24:15.168Z,8.33
2022-09-12T10:25:01.318Z,7.73
2022-09-12T10:26:04.323Z,7.27
2022-09-12T10:27:08.962Z,9.00
2022-09-12T10:28:01.817Z,7.77
2022-09-12T10:29:12.360Z,7.20
2022-09-12T10:30:05.129Z,7.93
2022-09-12T10:31:01.582Z,6.37
2022-09-12T10:32:05.553Z,7.73
2022-09-12T10:33:10.810Z,8.03
2022-09-12T10:34:01.291Z,8.50
2022-09-12T10:35:04.477Z,7.03
2022-09-12T10:36:01.685Z,8.47
2022-09-12T10:37:05.269Z,7.10
2022-09-12T10:38:04.436Z,6.43
2022-09-12T10:39:02.083Z,7.17
2022-09-12T10:40:03.515Z,7.63
2022-09-12T10:41:04.677Z,7.43
2022-09-12T10:42:01.778Z,8.53
2022-09-12T10:43:11.573Z,7.07
2022-09-12T10:44:06.678Z,7.33
2022-09-12T10:45:00.996Z,6.77
2022-09-12T10:46:20.508Z,7.30
2022-09-12T10:47:20.439Z,8.60
2022-09-12T10:48:07.552Z,6.03
2022-09-12T10:49:13.769Z,8.23
2022-09-12T10:50:22.775Z,7.93
2022-09-12T10:51:01.940Z,6.67
2022-09-12T10:52:20.477Z,8.47
2022-09-12T10:53:13.071Z,9.53
2022-09-12T10:54:04.513Z,10.07
2022-09-12T10:55:01.275Z,7.53
2022-09-12T10:56:06.050Z,9.17
2022-09-12T10:57:19.345Z,6.70
2022-09-12T10:58:15.123Z,7.50
2022-09-12T10:59:18.066Z,8.43
2022-09-12T11:00:07.997Z,8.60
2022-09-12T11:01:12.919Z,9.37
2022-09-12T11:02:14.142Z,7.43
2022-09-12T11:03:14.211Z,7.43
2022-09-12T11:04:20.570Z,5.90
2022-09-12T11:05:11.304Z,5.77
2022-09-12T11:06:01.669Z,7.03
2022-09-12T11:07:20.188Z,7.17
2022-09-12T11:08:10.665Z,8.23
2022-09-12T11:09:09.217Z,8.37
2022-09-12T11:10:15.093Z,8.70
2022-09-12T11:11:10.487Z,8.70
2022-09-12T11:12:14.536Z,8.67
2022-09-12T11:13:18.920Z,8.00
2022-09-12T11:14:12.376Z,9.80
2022-09-12T11:15:18.299Z,7.23
2022-09-12T11:16:14.033Z,8.07
2022-09-12T11:17:14.340Z,7.47
2022-09-12T11:18:11.209Z,8.10
2022-09-12T11:19:12.617Z,6.70
2022-09-12T11:20:13.177Z,9.07
2022-09-12T11:21:11.607Z,7.73
2022-09-12T11:22:18.270Z,8.40
2022-09-12T11:23:20.479Z,6.73
2022-09-12T11:24:14.095Z,6.53
2022-09-12T11:25:15.981Z,6.57
2022-09-12T11:26:15.953Z,7.73
2022-09-12T11:27:11.775Z,9.00
2022-09-12T11:28:19.766Z,9.20
2022-09-12T11:29:17.047Z,7.07
2022-09-12T11:30:06.708Z,7.83
2022-09-12T11:31:19.423Z,6.93
2022-09-12T11:32:19.980Z,6.43
2022-09-12T11:33:17.948Z,6.47
2022-09-12T11:34:07.176Z,7.23
2022-09-12T11:35:16.543Z,8.20
2022-09-12T11:36:06.490Z,6.17
2022-09-12T11:37:14.099Z,6.03
2022-09-12T11:38:12.061Z,6.17
2022-09-12T11:39:08.404Z,7.43
2022-09-12T11:40:15.570Z,7.90
2022-09-12T11:41:04.431Z,8.10
2022-09-12T11:42:04.492Z,7.43
2022-09-12T11:43:10.829Z,6.17
2022-09-12T11:44:10.157Z,6.83
2022-09-12T11:45:12.111Z,7.40
2022-09-12T11:46:09.174Z,6.93
2022-09-12T11:47:04.624Z,7.07
2022-09-12T11:48:11.213Z,5.80
2022-09-12T11:49:10.084Z,6.33
2022-09-12T11:50:04.554Z,5.87
2022-09-12T11:51:04.634Z,6.63
2022-09-12T11:52:06.297Z,7.50
2022-09-12T11:53:12.129Z,9.43
2022-09-12T11:54:11.678Z,6.57
2022-09-12T11:55:05.212Z,7.10
2022-09-12T11:56:07.567Z,7.33
2022-09-12T11:57:07.157Z,7.23
2022-09-12T11:58:00.965Z,6.97
2022-09-12T11:59:09.553Z,6.33
2022-09-12T12:00:05.381Z,7.83
2022-09-12T12:01:10.771Z,7.40
2022-09-12T12:02:02.899Z,7.50
2022-09-12T12:03:08.264Z,8.53
2022-09-12T12:04:11.914Z,7.30
2022-09-12T12:05:16.978Z,7.93
2022-09-12T12:06:04.450Z,7.20
2022-09-12T12:07:05.441Z,7.33
2022-09-12T12:08:04.864Z,6.03
2022-09-12T12:09:03.982Z,5.77
2022-09-12T12:10:01.344Z,8.97
2022-09-12T12:11:03.732Z,7.30
2022-09-12T12:12:06.544Z,7.37
2022-09-12T12:13:06.756Z,8.00
2022-09-12T12:14:06.333Z,6.17
2022-09-12T12:15:01.546Z,6.13
2022-09-12T12:16:06.314Z,5.90
2022-09-12T12:17:01.100Z,5.77
2022-09-12T12:18:05.380Z,5.90
2022-09-12T12:19:10.483Z,6.10
2022-09-12T12:20:07.645Z,6.53
2022-09-12T12:21:18.763Z,6.87
2022-09-12T12:22:15.503Z,5.63
2022-09-12T12:23:01.131Z,7.73
2022-09-12T12:24:11.964Z,6.53
2022-09-12T12:25:06.464Z,5.70
2022-09-12T12:26:03.073Z,6.13
2022-09-12T12:27:02.927Z,7.10
2022-09-12T12:28:01.220Z,6.63
2022-09-12T12:29:00.922Z,7.47
2022-09-12T12:30:01.300Z,6.37
2022-09-12T12:31:01.684Z,5.47
2022-09-12T12:32:18.514Z,5.27
2022-09-12T12:33:01.684Z,6.70
2022-09-12T12:34:07.392Z,5.73
2022-09-12T12:35:20.416Z,8.10
2022-09-12T12:36:03.073Z,6.13
2022-09-12T12:37:20.421Z,6.90
2022-09-12T12:38:01.850Z,7.00
2022-09-12T12:39:20.426Z,5.23
2022-09-12T12:40:08.799Z,6.00
2022-09-12T12:41:20.404Z,7.40
2022-09-12T12:42:02.088Z,5.33
2022-09-12T12:43:05.221Z,6.07
2022-09-12T12:44:20.457Z,5.77
2022-09-12T12:45:02.081Z,6.80
2022-09-12T12:46:10.464Z,7.27
2022-09-12T12:47:16.112Z,6.23
2022-09-12T12:48:10.170Z,7.40
2022-09-12T12:49:08.827Z,6.17
2022-09-12T12:50:05.204Z,6.20
2022-09-12T12:51:15.197Z,5.90
2022-09-12T12:52:01.783Z,6.67
2022-09-12T12:53:05.369Z,6.00
2022-09-12T12:54:04.459Z,6.43
2022-09-12T12:55:03.289Z,5.97
2022-09-12T12:56:02.256Z,6.37
2022-09-12T12:57:04.099Z,6.13
2022-09-12T12:58:02.837Z,5.30
2022-09-12T12:59:03.728Z,7.43
2022-09-12T13:00:04.367Z,5.20
2022-09-12T13:01:07.163Z,6.57
2022-09-12T13:02:01.040Z,5.43
2022-09-12T13:03:17.290Z,7.57
2022-09-12T13:04:09.625Z,7.17
2022-09-12T13:05:05.254Z,7.47
2022-09-12T13:06:04.682Z,9.10
2022-09-12T13:07:07.980Z,7.27
2022-09-12T13:08:07.808Z,8.57
2022-09-12T13:09:07.155Z,7.23
2022-09-12T13:10:04.043Z,8.43
2022-09-12T13:11:06.974Z,6.87
2022-09-12T13:12:05.750Z,8.73
2022-09-12T13:13:05.692Z,8.27
2022-09-12T13:14:03.719Z,7.63